Time,TemperatureF,DewpointF,PressureIn,WindDirection,WindDirectionDegrees,WindSpeedMPH,WindSpeedGustMPH,Humidity,HourlyPrecipIn,Conditions,Clouds,dailyrainin,SoftwareType,DateUTC
2013-06-09 00:02:00,59.0,58.0,29.83,West,269,0.0,2.0,97,0.00,,,0.19,,2013-06-09 05:02:00,
2013-06-09 00:12:00,59.0,58.0,29.83,West,269,0.0,2.0,97,0.00,,,0.19,,2013-06-09 05:12:00,
2013-06-09 00:22:00,59.0,58.0,29.84,West,269,0.0,1.0,97,0.00,,,0.19,,2013-06-09 05:22:00,
2013-06-09 00:32:00,59.0,58.0,29.84,West,269,0.0,0.0,96,0.00,,,0.19,,2013-06-09 05:32:00,
2013-06-09 00:42:00,59.0,58.0,29.84,West,269,0.0,0.0,96,0.00,,,0.19,,2013-06-09 05:42:00,
2013-06-09 00:52:00,58.0,57.0,29.84,West,269,0.0,0.0,96,0.00,,,0.19,,2013-06-09 05:52:00,
2013-06-09 01:02:00,58.0,57.0,29.83,West,269,0.0,0.0,96,0.00,,,0.19,,2013-06-09 06:02:00,
2013-06-09 01:12:00,58.0,57.0,29.83,West,269,0.0,0.0,96,0.00,,,0.19,,2013-06-09 06:12:00,
2013-06-09 01:22:00,58.0,57.0,29.83,West,269,0.0,0.0,96,0.00,,,0.19,,2013-06-09 06:22:00,
2013-06-09 01:32:00,58.0,57.0,29.83,West,269,0.0,0.0,96,0.00,,,0.19,,2013-06-09 06:32:00,
2013-06-09 01:42:00,58.0,57.0,29.83,West,269,0.0,0.0,96,0.00,,,0.19,,2013-06-09 06:42:00,
2013-06-09 01:52:00,58.0,57.0,29.84,West,269,0.0,1.0,97,0.00,,,0.19,,2013-06-09 06:52:00,
2013-06-09 02:02:00,57.0,56.0,29.84,West,269,0.0,1.0,97,0.00,,,0.19,,2013-06-09 07:02:00,
2013-06-09 02:12:00,57.0,56.0,29.84,West,269,0.0,1.0,97,0.00,,,0.19,,2013-06-09 07:12:00,
2013-06-09 02:22:00,57.0,56.0,29.84,West,269,0.0,0.0,97,0.00,,,0.19,,2013-06-09 07:22:00,
2013-06-09 02:32:00,57.0,56.0,29.84,West,269,0.0,0.0,97,0.00,,,0.19,,2013-06-09 07:32:00,
2013-06-09 02:42:00,57.0,56.0,29.84,West,269,0.0,0.0,97,0.00,,,0.19,,2013-06-09 07:42:00,
2013-06-09 02:52:00,57.0,56.0,29.84,West,269,0.0,0.0,97,0.00,,,0.19,,2013-06-09 07:52:00,
2013-06-09 03:02:00,57.0,56.0,29.84,West,269,0.0,0.0,97,0.00,,,0.19,,2013-06-09 08:02:00,
2013-06-09 03:12:00,57.0,56.0,29.84,West,269,0.0,0.0,97,0.00,,,0.19,,2013-06-09 08:12:00,
2013-06-09 03:22:00,57.0,56.0,29.84,West,269,0.0,0.0,97,0.00,,,0.19,,2013-06-09 08:22:00,
2013-06-09 03:32:00,57.0,56.0,29.84,West,269,0.0,0.0,97,0.00,,,0.19,,2013-06-09 08:32:00,
2013-06-09 03:42:00,57.0,56.0,29.84,West,269,0.0,0.0,97,0.00,,,0.19,,2013-06-09 08:42:00,
2013-06-09 03:53:00,57.0,56.0,29.84,West,269,0.0,0.0,97,0.00,,,0.19,,2013-06-09 08:53:00,
2013-06-09 04:02:00,56.0,55.0,29.84,West,269,0.0,0.0,97,0.00,,,0.19,,2013-06-09 09:02:00,
2013-06-09 04:12:00,56.0,55.0,29.84,West,269,0.0,0.0,97,0.00,,,0.19,,2013-06-09 09:12:00,
2013-06-09 04:22:00,56.0,55.0,29.84,West,269,0.0,0.0,97,0.00,,,0.19,,2013-06-09 09:22:00,
2013-06-09 04:33:00,55.0,54.0,29.84,West,269,0.0,2.0,97,0.00,,,0.18,,2013-06-09 09:33:00,
2013-06-09 04:43:00,55.0,54.0,29.84,West,269,0.0,2.0,97,0.00,,,0.18,,2013-06-09 09:43:00,
2013-06-09 04:52:00,55.0,54.0,29.84,West,269,0.0,1.0,97,0.00,,,0.18,,2013-06-09 09:52:00,
2013-06-09 05:03:00,55.0,54.0,29.84,WNW,301,1.0,2.0,97,0.00,,,0.18,,2013-06-09 10:03:00,
2013-06-09 05:12:00,55.0,54.0,29.84,WNW,301,1.0,2.0,97,0.00,,,0.18,,2013-06-09 10:12:00,
2013-06-09 05:23:00,55.0,54.0,29.84,NNW,329,2.0,3.0,98,0.00,,,0.16,,2013-06-09 10:23:00,
2013-06-09 05:32:00,55.0,54.0,29.84,NNW,329,2.0,3.0,97,0.00,,,0.16,,2013-06-09 10:32:00,
2013-06-09 05:43:00,55.0,54.0,29.84,NNW,329,2.0,3.0,97,0.00,,,0.16,,2013-06-09 10:43:00,
2013-06-09 05:52:00,55.0,54.0,29.85,NNW,329,1.0,2.0,98,0.00,,,0.16,,2013-06-09 10:52:00,
2013-06-09 06:02:00,54.0,53.0,29.85,NNW,335,3.0,5.0,98,0.00,,,0.16,,2013-06-09 11:02:00,
2013-06-09 06:12:00,54.0,53.0,29.85,NNW,335,3.0,5.0,98,0.00,,,0.16,,2013-06-09 11:12:00,
2013-06-09 06:22:00,54.0,53.0,29.85,NNW,335,2.0,4.0,98,0.00,,,0.13,,2013-06-09 11:22:00,
2013-06-09 06:32:00,54.0,53.0,29.86,NNW,335,0.0,0.0,98,0.00,,,0.13,,2013-06-09 11:32:00,
2013-06-09 06:42:00,54.0,53.0,29.86,NNW,335,0.0,0.0,98,0.00,,,0.13,,2013-06-09 11:42:00,
2013-06-09 06:53:00,54.0,53.0,29.87,NNW,335,0.0,1.0,98,0.00,,,0.13,,2013-06-09 11:53:00,
2013-06-09 07:02:00,54.0,53.0,29.87,NNW,335,1.0,4.0,98,0.00,,,0.13,,2013-06-09 12:02:00,
2013-06-09 07:12:00,54.0,53.0,29.87,NNW,335,1.0,4.0,98,0.00,,,0.13,,2013-06-09 12:12:00,
2013-06-09 07:22:00,54.0,53.0,29.87,NNW,335,0.0,2.0,98,0.00,,,0.12,,2013-06-09 12:22:00,
2013-06-09 07:32:00,54.0,53.0,29.87,NNW,335,1.0,3.0,98,0.00,,,0.12,,2013-06-09 12:32:00,
2013-06-09 07:42:00,54.0,53.0,29.87,NNW,335,1.0,3.0,98,0.00,,,0.12,,2013-06-09 12:42:00,
2013-06-09 07:52:00,54.0,53.0,29.87,NNW,335,1.0,4.0,98,0.00,,,0.12,,2013-06-09 12:52:00,
2013-06-09 08:02:00,55.0,54.0,29.88,NNW,336,4.0,6.0,98,0.00,,,0.12,,2013-06-09 13:02:00,
2013-06-09 08:12:00,55.0,54.0,29.88,NNW,336,4.0,6.0,98,0.00,,,0.12,,2013-06-09 13:12:00,
2013-06-09 08:22:00,55.0,55.0,29.88,North,355,2.0,5.0,99,0.00,,,0.12,,2013-06-09 13:22:00,
2013-06-09 08:32:00,55.0,54.0,29.88,NNW,344,3.0,6.0,98,0.00,,,0.12,,2013-06-09 13:32:00,
2013-06-09 08:42:00,55.0,54.0,29.88,NNW,344,3.0,6.0,98,0.00,,,0.12,,2013-06-09 13:42:00,
2013-06-09 08:52:00,55.0,54.0,29.88,NNW,333,4.0,8.0,98,0.00,,,0.12,,2013-06-09 13:52:00,
2013-06-09 09:02:00,56.0,56.0,29.89,NNW,340,3.0,5.0,99,0.00,,,0.12,,2013-06-09 14:02:00,
2013-06-09 09:12:00,56.0,56.0,29.89,NNW,340,3.0,5.0,99,0.00,,,0.12,,2013-06-09 14:12:00,
2013-06-09 09:22:00,56.0,56.0,29.89,NNW,340,4.0,6.0,99,0.00,,,0.12,,2013-06-09 14:22:00,
2013-06-09 09:32:00,57.0,57.0,29.89,WNW,299,3.0,6.0,99,0.00,,,0.12,,2013-06-09 14:32:00,
2013-06-09 09:42:00,57.0,57.0,29.89,WNW,299,3.0,6.0,99,0.00,,,0.12,,2013-06-09 14:42:00,
2013-06-09 09:52:00,58.0,58.0,29.88,NNW,336,3.0,6.0,99,0.00,,,0.12,,2013-06-09 14:52:00,
2013-06-09 10:02:00,59.0,58.0,29.88,NNW,342,3.0,7.0,98,0.00,,,0.12,,2013-06-09 15:02:00,
2013-06-09 10:12:00,59.0,58.0,29.88,NNW,342,3.0,7.0,98,0.00,,,0.12,,2013-06-09 15:12:00,
2013-06-09 10:22:00,61.0,60.0,29.88,NNW,327,3.0,7.0,96,0.00,,,0.12,,2013-06-09 15:22:00,
2013-06-09 10:33:00,62.0,59.0,29.88,NNW,339,3.0,7.0,90,0.00,,,0.12,,2013-06-09 15:33:00,
2013-06-09 10:43:00,62.0,59.0,29.88,NNW,339,3.0,7.0,90,0.00,,,0.12,,2013-06-09 15:43:00,
2013-06-09 10:53:00,64.0,58.0,29.88,North,355,7.0,11.0,82,0.00,,,0.12,,2013-06-09 15:53:00,
2013-06-09 11:03:00,65.0,57.0,29.88,NNW,343,8.0,12.0,75,0.00,,,0.12,,2013-06-09 16:03:00,
2013-06-09 11:13:00,65.0,57.0,29.88,NNW,343,8.0,12.0,75,0.00,,,0.12,,2013-06-09 16:13:00,
2013-06-09 11:23:00,66.0,57.0,29.88,North,5,3.0,9.0,74,0.00,,,0.12,,2013-06-09 16:23:00,
2013-06-09 11:33:00,67.0,56.0,29.88,North,5,7.0,11.0,67,0.00,,,0.12,,2013-06-09 16:33:00,
2013-06-09 11:42:00,67.0,56.0,29.88,North,5,7.0,11.0,67,0.00,,,0.12,,2013-06-09 16:42:00,
2013-06-09 11:53:00,67.0,57.0,29.88,NNE,21,5.0,12.0,70,0.00,,,0.12,,2013-06-09 16:53:00,
2013-06-09 12:02:00,68.0,55.0,29.88,NNW,345,8.0,13.0,64,0.00,,,0.12,,2013-06-09 17:02:00,
2013-06-09 12:12:00,68.0,55.0,29.88,NNW,345,8.0,13.0,64,0.00,,,0.12,,2013-06-09 17:12:00,
2013-06-09 12:22:00,69.0,56.0,29.88,NW,317,6.0,11.0,63,0.00,,,0.11,,2013-06-09 17:22:00,
2013-06-09 12:32:00,69.0,55.0,29.88,NNW,336,4.0,11.0,61,0.00,,,0.11,,2013-06-09 17:32:00,
2013-06-09 12:42:00,69.0,55.0,29.88,NNW,336,4.0,11.0,61,0.00,,,0.11,,2013-06-09 17:42:00,
2013-06-09 12:52:00,69.0,55.0,29.88,NNW,346,7.0,13.0,60,0.00,,,0.11,,2013-06-09 17:52:00,
2013-06-09 13:02:00,70.0,55.0,29.87,North,5,7.0,14.0,58,0.00,,,0.11,,2013-06-09 18:02:00,
2013-06-09 13:12:00,70.0,55.0,29.87,North,5,7.0,14.0,58,0.00,,,0.11,,2013-06-09 18:12:00,
2013-06-09 13:22:00,70.0,54.0,29.87,NNE,25,6.0,14.0,57,0.00,,,0.11,,2013-06-09 18:22:00,
2013-06-09 13:32:00,70.0,55.0,29.87,North,5,7.0,13.0,60,0.00,,,0.11,,2013-06-09 18:32:00,
2013-06-09 13:42:00,70.0,55.0,29.87,North,5,7.0,13.0,60,0.00,,,0.11,,2013-06-09 18:42:00,
2013-06-09 13:52:00,70.0,53.0,29.87,North,9,5.0,12.0,55,0.00,,,0.11,,2013-06-09 18:52:00,
2013-06-09 14:02:00,70.0,55.0,29.86,NNW,342,4.0,9.0,58,0.00,,,0.11,,2013-06-09 19:02:00,
2013-06-09 14:12:00,70.0,55.0,29.86,NNW,342,4.0,9.0,58,0.00,,,0.11,,2013-06-09 19:12:00,
2013-06-09 14:22:00,71.0,54.0,29.86,NNE,22,4.0,7.0,56,0.00,,,0.10,,2013-06-09 19:22:00,
2013-06-09 14:32:00,71.0,54.0,29.86,North,350,4.0,11.0,54,0.00,,,0.10,,2013-06-09 19:32:00,
2013-06-09 14:42:00,71.0,54.0,29.86,North,350,4.0,11.0,54,0.00,,,0.10,,2013-06-09 19:42:00,
2013-06-09 14:52:00,72.0,53.0,29.85,NNW,329,6.0,12.0,52,0.00,,,0.10,,2013-06-09 19:52:00,
2013-06-09 15:02:00,72.0,53.0,29.85,North,5,6.0,9.0,52,0.00,,,0.10,,2013-06-09 20:02:00,
2013-06-09 15:12:00,72.0,53.0,29.85,North,5,6.0,9.0,52,0.00,,,0.10,,2013-06-09 20:12:00,
2013-06-09 15:22:00,72.0,51.0,29.85,NNW,331,5.0,11.0,48,0.00,,,0.05,,2013-06-09 20:22:00,
2013-06-09 15:32:00,72.0,52.0,29.85,NNW,331,4.0,11.0,49,0.00,,,0.05,,2013-06-09 20:32:00,
2013-06-09 15:42:00,72.0,52.0,29.85,NNW,331,4.0,11.0,49,0.00,,,0.05,,2013-06-09 20:42:00,
2013-06-09 15:52:00,73.0,52.0,29.85,NNW,344,7.0,12.0,47,0.00,,,0.05,,2013-06-09 20:52:00,
2013-06-09 16:02:00,75.0,52.0,29.85,NNW,328,5.0,10.0,44,0.00,,,0.05,,2013-06-09 21:02:00,
2013-06-09 16:12:00,75.0,52.0,29.85,NNW,328,5.0,10.0,44,0.00,,,0.05,,2013-06-09 21:12:00,
2013-06-09 16:22:00,73.0,50.0,29.84,NNE,23,4.0,9.0,45,0.00,,,0.02,,2013-06-09 21:22:00,
2013-06-09 16:33:00,75.0,53.0,29.84,North,9,3.0,8.0,46,0.00,,,0.02,,2013-06-09 21:33:00,
2013-06-09 16:53:00,75.0,52.0,29.84,West,272,4.0,8.0,45,0.00,,,0.02,,2013-06-09 21:53:00,
2013-06-09 17:02:00,74.0,52.0,29.83,NNW,332,4.0,7.0,46,0.00,,,0.02,,2013-06-09 22:02:00,
2013-06-09 17:13:00,74.0,52.0,29.83,NNW,332,4.0,7.0,46,0.00,,,0.02,,2013-06-09 22:13:00,
2013-06-09 17:23:00,75.0,54.0,29.83,NNE,17,3.0,7.0,48,0.00,,,0.01,,2013-06-09 22:23:00,
2013-06-09 17:33:00,74.0,51.0,29.83,NE,41,0.0,6.0,45,0.00,,,0.01,,2013-06-09 22:33:00,
2013-06-09 17:42:00,74.0,51.0,29.83,NE,41,0.0,6.0,45,0.00,,,0.01,,2013-06-09 22:42:00,
2013-06-09 17:52:00,74.0,51.0,29.83,NNW,344,1.0,6.0,44,0.00,,,0.01,,2013-06-09 22:52:00,
2013-06-09 18:02:00,74.0,51.0,29.82,SW,225,2.0,6.0,45,0.00,,,0.01,,2013-06-09 23:02:00,
2013-06-09 18:12:00,74.0,51.0,29.82,SW,225,2.0,6.0,45,0.00,,,0.01,,2013-06-09 23:12:00,
2013-06-09 18:22:00,75.0,52.0,29.82,NW,305,1.0,5.0,45,0.00,,,0.01,,2013-06-09 23:22:00,
2013-06-09 18:32:00,75.0,52.0,29.82,WNW,291,1.0,5.0,44,0.00,,,0.01,,2013-06-09 23:32:00,
2013-06-09 18:42:00,75.0,52.0,29.82,WNW,291,1.0,5.0,44,0.00,,,0.01,,2013-06-09 23:42:00,
2013-06-09 18:52:00,76.0,51.0,29.81,NNW,338,3.0,4.0,42,0.00,,,0.01,,2013-06-09 23:52:00,
2013-06-09 19:02:00,75.0,52.0,29.81,NE,40,2.0,6.0,44,0.00,,,0.01,,2013-06-10 00:02:00,
2013-06-09 19:12:00,75.0,52.0,29.81,NE,40,2.0,6.0,44,0.00,,,0.01,,2013-06-10 00:12:00,
2013-06-09 19:22:00,75.0,52.0,29.81,NE,47,2.0,5.0,44,0.00,,,0.01,,2013-06-10 00:22:00,
2013-06-09 19:32:00,75.0,51.0,29.80,NE,44,3.0,5.0,43,0.00,,,0.01,,2013-06-10 00:32:00,
2013-06-09 19:42:00,75.0,51.0,29.80,NE,44,3.0,5.0,43,0.00,,,0.01,,2013-06-10 00:42:00,
2013-06-09 19:52:00,74.0,51.0,29.80,NNE,30,0.0,4.0,44,0.00,,,0.01,,2013-06-10 00:52:00,
2013-06-09 20:02:00,75.0,50.0,29.81,NNE,30,0.0,1.0,42,0.00,,,0.01,,2013-06-10 01:02:00,
2013-06-09 20:12:00,75.0,50.0,29.81,NNE,30,0.0,1.0,42,0.00,,,0.01,,2013-06-10 01:12:00,
2013-06-09 20:22:00,76.0,52.0,29.80,NNE,30,0.0,2.0,44,0.00,,,0.00,,2013-06-10 01:22:00,
2013-06-09 20:32:00,75.0,53.0,29.80,NNE,30,1.0,4.0,46,0.00,,,0.00,,2013-06-10 01:32:00,
2013-06-09 20:42:00,75.0,53.0,29.80,NNE,30,1.0,4.0,46,0.00,,,0.00,,2013-06-10 01:42:00,
2013-06-09 20:52:00,74.0,54.0,29.80,NNE,30,0.0,1.0,49,0.00,,,0.00,,2013-06-10 01:52:00,
2013-06-09 21:02:00,73.0,53.0,29.80,NNE,30,0.0,2.0,50,0.00,,,0.00,,2013-06-10 02:02:00,
2013-06-09 21:12:00,73.0,53.0,29.80,NNE,30,0.0,2.0,50,0.00,,,0.00,,2013-06-10 02:12:00,
2013-06-09 21:22:00,72.0,54.0,29.80,NNE,30,0.0,1.0,53,0.00,,,0.00,,2013-06-10 02:22:00,
2013-06-09 21:32:00,71.0,54.0,29.79,NNE,32,0.0,3.0,56,0.00,,,0.00,,2013-06-10 02:32:00,
2013-06-09 21:42:00,71.0,54.0,29.79,NNE,32,0.0,3.0,56,0.00,,,0.00,,2013-06-10 02:42:00,
2013-06-09 21:52:00,69.0,54.0,29.79,NNE,32,0.0,1.0,59,0.00,,,0.00,,2013-06-10 02:52:00,
2013-06-09 22:02:00,68.0,54.0,29.79,ENE,74,1.0,4.0,61,0.00,,,0.00,,2013-06-10 03:02:00,
2013-06-09 22:12:00,68.0,54.0,29.79,ENE,74,1.0,4.0,61,0.00,,,0.00,,2013-06-10 03:12:00,
2013-06-09 22:22:00,66.0,53.0,29.79,ENE,74,0.0,2.0,64,0.00,,,0.00,,2013-06-10 03:22:00,
2013-06-09 22:33:00,65.0,54.0,29.79,ENE,74,0.0,2.0,67,0.00,,,0.00,,2013-06-10 03:33:00,
2013-06-09 22:43:00,65.0,54.0,29.79,ENE,74,0.0,2.0,67,0.00,,,0.00,,2013-06-10 03:43:00,
2013-06-09 22:53:00,64.0,54.0,29.79,ENE,74,0.0,2.0,69,0.00,,,0.00,,2013-06-10 03:53:00,
2013-06-09 23:03:00,63.0,54.0,29.79,ENE,76,1.0,3.0,72,0.00,,,0.00,,2013-06-10 04:03:00,
2013-06-09 23:12:00,63.0,54.0,29.79,ENE,76,1.0,3.0,72,0.00,,,0.00,,2013-06-10 04:12:00,
2013-06-09 23:23:00,62.0,53.0,29.78,East,94,2.0,3.0,73,0.00,,,0.00,,2013-06-10 04:23:00,
2013-06-09 23:33:00,62.0,53.0,29.77,East,97,0.0,3.0,73,0.00,,,0.00,,2013-06-10 04:33:00,
2013-06-09 23:42:00,62.0,53.0,29.77,East,97,0.0,3.0,73,0.00,,,0.00,,2013-06-10 04:42:00,
2013-06-09 23:53:00,61.0,53.0,29.77,ESE,105,1.0,4.0,74,0.00,,,0.00,,2013-06-10 04:53:00,